sensor_id;sensor_type;location;lat;lon;timestamp;temperature;humidity
2611;DHT22;5612;51.134;17.058;2023-03-09T00:01:36;6.10;1.00
2611;DHT22;5612;51.134;17.058;2023-03-09T00:04:08;6.00;1.00
2611;DHT22;5612;51.134;17.058;2023-03-09T00:06:40;5.90;1.00
2611;DHT22;5612;51.134;17.058;2023-03-09T00:09:10;5.90;1.00
2611;DHT22;5612;51.134;17.058;2023-03-09T00:11:40;6.00;1.00
2611;DHT22;5612;51.134;17.058;2023-03-09T00:14:09;6.00;1.00
2611;DHT22;5612;51.134;17.058;2023-03-09T00:16:39;5.90;1.00
2611;DHT22;5612;51.134;17.058;2023-03-09T00:19:09;6.00;1.00
2611;DHT22;5612;51.134;17.058;2023-03-09T00:21:38;6.00;1.00
2611;DHT22;5612;51.134;17.058;2023-03-09T00:24:10;6.00;1.00
2611;DHT22;5612;51.134;17.058;2023-03-09T00:26:42;5.90;1.00
2611;DHT22;5612;51.134;17.058;2023-03-09T00:29:12;5.80;1.00
2611;DHT22;5612;51.134;17.058;2023-03-09T00:31:41;5.80;1.00
2611;DHT22;5612;51.134;17.058;2023-03-09T00:34:13;5.90;1.00
2611;DHT22;5612;51.134;17.058;2023-03-09T00:36:43;6.00;1.00
2611;DHT22;5612;51.134;17.058;2023-03-09T00:39:13;6.00;1.00
2611;DHT22;5612;51.134;17.058;2023-03-09T00:41:42;6.00;1.00
2611;DHT22;5612;51.134;17.058;2023-03-09T00:44:12;6.00;1.00
2611;DHT22;5612;51.134;17.058;2023-03-09T00:46:41;5.90;1.00
2611;DHT22;5612;51.134;17.058;2023-03-09T00:49:14;5.90;1.00
2611;DHT22;5612;51.134;17.058;2023-03-09T00:51:43;5.80;1.00
2611;DHT22;5612;51.134;17.058;2023-03-09T00:54:12;5.70;1.00
2611;DHT22;5612;51.134;17.058;2023-03-09T00:56:42;5.70;1.00
2611;DHT22;5612;51.134;17.058;2023-03-09T00:59:11;5.70;1.00
2611;DHT22;5612;51.134;17.058;2023-03-09T01:01:40;5.70;1.00
2611;DHT22;5612;51.134;17.058;2023-03-09T01:04:08;5.70;1.00
2611;DHT22;5612;51.134;17.058;2023-03-09T01:06:39;5.70;1.00
2611;DHT22;5612;51.134;17.058;2023-03-09T01:09:08;5.60;1.30
2611;DHT22;5612;51.134;17.058;2023-03-09T01:11:38;5.50;1.00
2611;DHT22;5612;51.134;17.058;2023-03-09T01:14:06;5.40;51.40
2611;DHT22;5612;51.134;17.058;2023-03-09T01:16:35;5.50;51.00
2611;DHT22;5612;51.134;17.058;2023-03-09T01:19:04;5.60;39.50
2611;DHT22;5612;51.134;17.058;2023-03-09T01:21:33;5.60;22.80
2611;DHT22;5612;51.134;17.058;2023-03-09T01:24:03;5.50;27.80
2611;DHT22;5612;51.134;17.058;2023-03-09T01:26:32;5.50;35.00
2611;DHT22;5612;51.134;17.058;2023-03-09T01:29:00;5.40;40.90
2611;DHT22;5612;51.134;17.058;2023-03-09T01:31:29;5.50;40.10
2611;DHT22;5612;51.134;17.058;2023-03-09T01:33:58;5.40;48.00
2611;DHT22;5612;51.134;17.058;2023-03-09T01:36:27;5.40;46.20
2611;DHT22;5612;51.134;17.058;2023-03-09T01:38:56;5.40;38.90
2611;DHT22;5612;51.134;17.058;2023-03-09T01:41:26;5.40;41.80
2611;DHT22;5612;51.134;17.058;2023-03-09T01:43:55;5.30;51.90
2611;DHT22;5612;51.134;17.058;2023-03-09T01:46:38;5.40;47.40
2611;DHT22;5612;51.134;17.058;2023-03-09T01:49:15;5.40;45.00
2611;DHT22;5612;51.134;17.058;2023-03-09T01:51:48;5.40;27.70
2611;DHT22;5612;51.134;17.058;2023-03-09T01:54:22;5.40;27.70
2611;DHT22;5612;51.134;17.058;2023-03-09T01:56:57;5.20;44.40
2611;DHT22;5612;51.134;17.058;2023-03-09T01:59:28;5.20;64.90
2611;DHT22;5612;51.134;17.058;2023-03-09T02:01:59;5.20;59.00
2611;DHT22;5612;51.134;17.058;2023-03-09T02:04:34;5.10;45.50
2611;DHT22;5612;51.134;17.058;2023-03-09T02:07:04;5.10;66.70
2611;DHT22;5612;51.134;17.058;2023-03-09T02:09:37;5.10;76.90
2611;DHT22;5612;51.134;17.058;2023-03-09T02:12:11;5.10;61.30
2611;DHT22;5612;51.134;17.058;2023-03-09T02:14:41;5.20;57.40
2611;DHT22;5612;51.134;17.058;2023-03-09T02:17:11;5.30;39.30
2611;DHT22;5612;51.134;17.058;2023-03-09T02:19:48;5.20;31.80
2611;DHT22;5612;51.134;17.058;2023-03-09T02:22:20;5.20;36.20
2611;DHT22;5612;51.134;17.058;2023-03-09T02:24:55;5.10;42.40
2611;DHT22;5612;51.134;17.058;2023-03-09T02:27:30;5.20;25.30
2611;DHT22;5612;51.134;17.058;2023-03-09T02:29:59;5.20;30.90
2611;DHT22;5612;51.134;17.058;2023-03-09T02:32:30;5.20;32.50
2611;DHT22;5612;51.134;17.058;2023-03-09T02:34:59;5.20;22.10
2611;DHT22;5612;51.134;17.058;2023-03-09T02:37:30;5.30;24.00
2611;DHT22;5612;51.134;17.058;2023-03-09T02:40:02;5.30;12.00
2611;DHT22;5612;51.134;17.058;2023-03-09T02:42:34;5.30;12.20
2611;DHT22;5612;51.134;17.058;2023-03-09T02:45:04;5.20;10.20
2611;DHT22;5612;51.134;17.058;2023-03-09T02:47:33;5.30;6.60
2611;DHT22;5612;51.134;17.058;2023-03-09T02:50:04;5.20;6.60
2611;DHT22;5612;51.134;17.058;2023-03-09T02:52:33;5.30;1.20
2611;DHT22;5612;51.134;17.058;2023-03-09T02:55:02;5.40;1.00
2611;DHT22;5612;51.134;17.058;2023-03-09T02:57:31;5.50;1.00
2611;DHT22;5612;51.134;17.058;2023-03-09T03:00:02;5.40;1.00
2611;DHT22;5612;51.134;17.058;2023-03-09T03:02:31;5.20;1.00
2611;DHT22;5612;51.134;17.058;2023-03-09T03:05:00;5.20;1.00
2611;DHT22;5612;51.134;17.058;2023-03-09T03:07:29;5.20;1.00
2611;DHT22;5612;51.134;17.058;2023-03-09T03:09:58;5.20;1.00
2611;DHT22;5612;51.134;17.058;2023-03-09T03:12:26;5.10;1.00
2611;DHT22;5612;51.134;17.058;2023-03-09T03:14:55;5.10;10.00
2611;DHT22;5612;51.134;17.058;2023-03-09T03:17:25;5.10;5.80
2611;DHT22;5612;51.134;17.058;2023-03-09T03:19:54;5.10;12.40
2611;DHT22;5612;51.134;17.058;2023-03-09T03:22:23;5.10;1.00
2611;DHT22;5612;51.134;17.058;2023-03-09T03:24:52;5.10;15.80
2611;DHT22;5612;51.134;17.058;2023-03-09T03:27:20;5.00;5.30
2611;DHT22;5612;51.134;17.058;2023-03-09T03:29:51;5.00;22.60
2611;DHT22;5612;51.134;17.058;2023-03-09T03:32:20;5.20;15.10
2611;DHT22;5612;51.134;17.058;2023-03-09T03:34:50;5.00;1.00
2611;DHT22;5612;51.134;17.058;2023-03-09T03:37:19;5.00;16.40
2611;DHT22;5612;51.134;17.058;2023-03-09T03:39:47;4.90;19.60
2611;DHT22;5612;51.134;17.058;2023-03-09T03:42:16;4.80;26.20
2611;DHT22;5612;51.134;17.058;2023-03-09T03:44:45;4.70;43.30
2611;DHT22;5612;51.134;17.058;2023-03-09T03:47:14;4.70;45.60
2611;DHT22;5612;51.134;17.058;2023-03-09T03:49:42;4.80;46.40
2611;DHT22;5612;51.134;17.058;2023-03-09T03:52:13;5.00;38.30
2611;DHT22;5612;51.134;17.058;2023-03-09T03:54:41;4.90;23.20
2611;DHT22;5612;51.134;17.058;2023-03-09T03:57:10;4.80;22.20
2611;DHT22;5612;51.134;17.058;2023-03-09T03:59:39;4.90;30.60
2611;DHT22;5612;51.134;17.058;2023-03-09T04:02:07;5.00;25.70
2611;DHT22;5612;51.134;17.058;2023-03-09T04:04:36;4.90;21.90
2611;DHT22;5612;51.134;17.058;2023-03-09T04:07:05;4.90;24.60
2611;DHT22;5612;51.134;17.058;2023-03-09T04:09:35;4.80;37.80
2611;DHT22;5612;51.134;17.058;2023-03-09T04:12:04;4.70;46.90
2611;DHT22;5612;51.134;17.058;2023-03-09T04:14:33;4.70;54.80
2611;DHT22;5612;51.134;17.058;2023-03-09T04:17:02;4.80;46.40
2611;DHT22;5612;51.134;17.058;2023-03-09T04:19:30;4.90;47.90
2611;DHT22;5612;51.134;17.058;2023-03-09T04:21:59;5.00;33.20
2611;DHT22;5612;51.134;17.058;2023-03-09T04:24:28;4.90;31.30
2611;DHT22;5612;51.134;17.058;2023-03-09T04:26:58;4.80;34.80
2611;DHT22;5612;51.134;17.058;2023-03-09T04:29:27;4.70;52.00
2611;DHT22;5612;51.134;17.058;2023-03-09T04:31:56;4.70;55.80
2611;DHT22;5612;51.134;17.058;2023-03-09T04:34:24;4.80;53.00
2611;DHT22;5612;51.134;17.058;2023-03-09T04:36:53;4.80;51.70
2611;DHT22;5612;51.134;17.058;2023-03-09T04:39:22;4.80;43.00
2611;DHT22;5612;51.134;17.058;2023-03-09T04:41:51;4.70;47.90
2611;DHT22;5612;51.134;17.058;2023-03-09T04:44:23;4.70;48.30
2611;DHT22;5612;51.134;17.058;2023-03-09T04:46:52;4.80;39.10
2611;DHT22;5612;51.134;17.058;2023-03-09T04:49:20;4.80;57.70
2611;DHT22;5612;51.134;17.058;2023-03-09T04:51:49;4.70;54.60
2611;DHT22;5612;51.134;17.058;2023-03-09T04:54:18;4.80;55.90
2611;DHT22;5612;51.134;17.058;2023-03-09T04:56:47;4.80;41.10
2611;DHT22;5612;51.134;17.058;2023-03-09T04:59:16;4.70;43.80
2611;DHT22;5612;51.134;17.058;2023-03-09T05:01:46;4.70;39.20
2611;DHT22;5612;51.134;17.058;2023-03-09T05:04:15;4.70;43.90
2611;DHT22;5612;51.134;17.058;2023-03-09T05:06:44;4.60;54.80
2611;DHT22;5612;51.134;17.058;2023-03-09T05:09:14;4.60;70.80
2611;DHT22;5612;51.134;17.058;2023-03-09T05:11:43;4.60;78.80
2611;DHT22;5612;51.134;17.058;2023-03-09T05:14:13;4.60;67.50
2611;DHT22;5612;51.134;17.058;2023-03-09T05:16:42;4.60;70.60
2611;DHT22;5612;51.134;17.058;2023-03-09T05:19:12;4.40;82.60
2611;DHT22;5612;51.134;17.058;2023-03-09T05:21:41;4.30;99.50
2611;DHT22;5612;51.134;17.058;2023-03-09T05:24:10;4.30;99.90
2611;DHT22;5612;51.134;17.058;2023-03-09T05:26:39;4.40;99.90
2611;DHT22;5612;51.134;17.058;2023-03-09T05:29:07;4.40;99.90
2611;DHT22;5612;51.134;17.058;2023-03-09T05:31:36;4.30;99.90
2611;DHT22;5612;51.134;17.058;2023-03-09T05:34:05;4.30;99.90
2611;DHT22;5612;51.134;17.058;2023-03-09T05:36:36;4.20;99.90
2611;DHT22;5612;51.134;17.058;2023-03-09T05:39:04;4.10;99.90
2611;DHT22;5612;51.134;17.058;2023-03-09T05:41:44;4.10;99.90
2611;DHT22;5612;51.134;17.058;2023-03-09T05:44:20;4.20;99.90
2611;DHT22;5612;51.134;17.058;2023-03-09T05:46:50;4.10;99.90
2611;DHT22;5612;51.134;17.058;2023-03-09T05:49:19;4.30;99.90
2611;DHT22;5612;51.134;17.058;2023-03-09T05:51:49;4.20;99.90
2611;DHT22;5612;51.134;17.058;2023-03-09T05:54:17;4.20;99.90
2611;DHT22;5612;51.134;17.058;2023-03-09T05:56:46;4.30;99.90
2611;DHT22;5612;51.134;17.058;2023-03-09T05:59:15;4.20;99.90
2611;DHT22;5612;51.134;17.058;2023-03-09T06:01:44;4.20;99.90
2611;DHT22;5612;51.134;17.058;2023-03-09T06:04:13;4.30;99.90
2611;DHT22;5612;51.134;17.058;2023-03-09T06:06:42;4.20;99.90
2611;DHT22;5612;51.134;17.058;2023-03-09T06:09:12;4.10;99.90
2611;DHT22;5612;51.134;17.058;2023-03-09T06:11:41;4.10;99.90
2611;DHT22;5612;51.134;17.058;2023-03-09T06:14:10;4.00;99.90
2611;DHT22;5612;51.134;17.058;2023-03-09T06:16:40;4.20;99.90
2611;DHT22;5612;51.134;17.058;2023-03-09T06:19:10;4.30;99.90
2611;DHT22;5612;51.134;17.058;2023-03-09T06:21:39;4.40;99.90
2611;DHT22;5612;51.134;17.058;2023-03-09T06:24:09;4.40;99.90
2611;DHT22;5612;51.134;17.058;2023-03-09T06:26:39;4.30;99.90
2611;DHT22;5612;51.134;17.058;2023-03-09T06:29:08;4.30;99.90
2611;DHT22;5612;51.134;17.058;2023-03-09T06:31:37;4.20;99.90
2611;DHT22;5612;51.134;17.058;2023-03-09T06:34:05;4.30;99.90
2611;DHT22;5612;51.134;17.058;2023-03-09T06:36:34;4.30;99.10
2611;DHT22;5612;51.134;17.058;2023-03-09T06:39:03;4.40;84.60
2611;DHT22;5612;51.134;17.058;2023-03-09T06:41:32;4.40;74.30
2611;DHT22;5612;51.134;17.058;2023-03-09T06:44:03;4.40;59.20
2611;DHT22;5612;51.134;17.058;2023-03-09T06:46:31;4.50;57.70
2611;DHT22;5612;51.134;17.058;2023-03-09T06:49:00;4.50;48.60
2611;DHT22;5612;51.134;17.058;2023-03-09T06:51:29;4.50;42.00
2611;DHT22;5612;51.134;17.058;2023-03-09T06:53:58;4.50;35.40
2611;DHT22;5612;51.134;17.058;2023-03-09T06:56:26;4.50;29.10
2611;DHT22;5612;51.134;17.058;2023-03-09T06:58:57;4.50;20.00
2611;DHT22;5612;51.134;17.058;2023-03-09T07:01:27;4.40;16.20
2611;DHT22;5612;51.134;17.058;2023-03-09T07:03:56;4.50;19.60
2611;DHT22;5612;51.134;17.058;2023-03-09T07:06:25;4.40;14.90
2611;DHT22;5612;51.134;17.058;2023-03-09T07:08:54;4.40;19.40
2611;DHT22;5612;51.134;17.058;2023-03-09T07:11:23;4.40;6.50
2611;DHT22;5612;51.134;17.058;2023-03-09T07:13:52;4.60;9.60
2611;DHT22;5612;51.134;17.058;2023-03-09T07:16:21;4.60;1.00
2611;DHT22;5612;51.134;17.058;2023-03-09T07:18:54;4.70;1.00
2611;DHT22;5612;51.134;17.058;2023-03-09T07:21:23;4.80;1.00
2611;DHT22;5612;51.134;17.058;2023-03-09T07:23:52;4.60;1.00
2611;DHT22;5612;51.134;17.058;2023-03-09T07:26:21;4.40;1.00
2611;DHT22;5612;51.134;17.058;2023-03-09T07:28:50;4.40;1.00
2611;DHT22;5612;51.134;17.058;2023-03-09T07:31:18;4.30;1.00
2611;DHT22;5612;51.134;17.058;2023-03-09T07:33:48;4.40;1.00
2611;DHT22;5612;51.134;17.058;2023-03-09T07:36:19;4.40;1.00
2611;DHT22;5612;51.134;17.058;2023-03-09T07:38:48;4.30;1.00
2611;DHT22;5612;51.134;17.058;2023-03-09T07:41:18;4.30;1.00
2611;DHT22;5612;51.134;17.058;2023-03-09T07:43:47;4.40;1.00
2611;DHT22;5612;51.134;17.058;2023-03-09T07:46:16;4.30;1.00
2611;DHT22;5612;51.134;17.058;2023-03-09T07:48:46;4.20;1.00
2611;DHT22;5612;51.134;17.058;2023-03-09T07:51:15;4.30;12.70
2611;DHT22;5612;51.134;17.058;2023-03-09T07:53:45;4.40;1.00
2611;DHT22;5612;51.134;17.058;2023-03-09T07:56:14;4.50;1.00
2611;DHT22;5612;51.134;17.058;2023-03-09T07:58:43;4.50;1.00
2611;DHT22;5612;51.134;17.058;2023-03-09T08:01:15;4.50;1.00
2611;DHT22;5612;51.134;17.058;2023-03-09T08:03:44;4.50;1.00
2611;DHT22;5612;51.134;17.058;2023-03-09T08:06:14;4.60;1.00
2611;DHT22;5612;51.134;17.058;2023-03-09T08:08:42;4.40;1.00
2611;DHT22;5612;51.134;17.058;2023-03-09T08:11:13;4.30;1.00
2611;DHT22;5612;51.134;17.058;2023-03-09T08:13:42;4.30;1.00
2611;DHT22;5612;51.134;17.058;2023-03-09T08:16:11;4.30;1.00
2611;DHT22;5612;51.134;17.058;2023-03-09T08:18:40;4.30;1.00
2611;DHT22;5612;51.134;17.058;2023-03-09T08:21:11;4.40;1.00
2611;DHT22;5612;51.134;17.058;2023-03-09T08:23:41;4.30;1.00
2611;DHT22;5612;51.134;17.058;2023-03-09T08:26:14;4.30;1.00
2611;DHT22;5612;51.134;17.058;2023-03-09T08:28:43;4.40;1.00
2611;DHT22;5612;51.134;17.058;2023-03-09T08:31:14;4.50;1.00
2611;DHT22;5612;51.134;17.058;2023-03-09T08:33:44;4.60;1.00
2611;DHT22;5612;51.134;17.058;2023-03-09T08:36:17;4.50;1.00
2611;DHT22;5612;51.134;17.058;2023-03-09T08:38:47;4.50;1.00
2611;DHT22;5612;51.134;17.058;2023-03-09T08:41:18;4.50;1.00
2611;DHT22;5612;51.134;17.058;2023-03-09T08:43:47;4.80;1.00
2611;DHT22;5612;51.134;17.058;2023-03-09T08:46:16;4.70;1.00
2611;DHT22;5612;51.134;17.058;2023-03-09T08:48:46;4.70;1.00
2611;DHT22;5612;51.134;17.058;2023-03-09T08:51:16;4.80;1.00
2611;DHT22;5612;51.134;17.058;2023-03-09T08:53:45;5.00;1.00
2611;DHT22;5612;51.134;17.058;2023-03-09T08:56:14;5.10;1.00
2611;DHT22;5612;51.134;17.058;2023-03-09T08:58:45;5.20;1.00
2611;DHT22;5612;51.134;17.058;2023-03-09T09:01:15;5.30;1.00
2611;DHT22;5612;51.134;17.058;2023-03-09T09:03:44;5.40;1.00
2611;DHT22;5612;51.134;17.058;2023-03-09T09:06:14;5.50;1.00
2611;DHT22;5612;51.134;17.058;2023-03-09T09:08:44;5.40;99.90
2611;DHT22;5612;51.134;17.058;2023-03-09T09:11:15;5.40;99.90
2611;DHT22;5612;51.134;17.058;2023-03-09T09:13:45;5.50;1.00
2611;DHT22;5612;51.134;17.058;2023-03-09T09:16:14;5.60;99.90
2611;DHT22;5612;51.134;17.058;2023-03-09T09:18:43;5.70;99.90
2611;DHT22;5612;51.134;17.058;2023-03-09T09:21:14;5.70;81.10
2611;DHT22;5612;51.134;17.058;2023-03-09T09:23:44;5.50;99.90
2611;DHT22;5612;51.134;17.058;2023-03-09T09:26:13;5.60;99.90
2611;DHT22;5612;51.134;17.058;2023-03-09T09:28:45;5.70;99.90
2611;DHT22;5612;51.134;17.058;2023-03-09T09:31:17;5.90;99.90
2611;DHT22;5612;51.134;17.058;2023-03-09T09:33:47;6.10;1.00
2611;DHT22;5612;51.134;17.058;2023-03-09T09:36:17;6.20;64.50
2611;DHT22;5612;51.134;17.058;2023-03-09T09:38:47;6.20;99.90
2611;DHT22;5612;51.134;17.058;2023-03-09T09:41:18;6.20;1.00
2611;DHT22;5612;51.134;17.058;2023-03-09T09:43:52;6.10;1.00
2611;DHT22;5612;51.134;17.058;2023-03-09T09:49:48;5.90;99.90
2611;DHT22;5612;51.134;17.058;2023-03-09T09:52:31;5.80;1.00
2611;DHT22;5612;51.134;17.058;2023-03-09T09:55:13;5.80;1.00
2611;DHT22;5612;51.134;17.058;2023-03-09T09:57:45;5.80;1.00
2611;DHT22;5612;51.134;17.058;2023-03-09T10:00:19;5.80;1.00
2611;DHT22;5612;51.134;17.058;2023-03-09T10:03:06;5.90;99.90
2611;DHT22;5612;51.134;17.058;2023-03-09T10:05:42;5.70;99.90
2611;DHT22;5612;51.134;17.058;2023-03-09T10:08:25;5.70;1.00
2611;DHT22;5612;51.134;17.058;2023-03-09T10:11:03;5.90;1.00
2611;DHT22;5612;51.134;17.058;2023-03-09T10:13:37;6.10;1.00
2611;DHT22;5612;51.134;17.058;2023-03-09T10:16:13;6.00;51.90
2611;DHT22;5612;51.134;17.058;2023-03-09T10:18:47;5.80;1.00
2611;DHT22;5612;51.134;17.058;2023-03-09T10:21:22;5.80;1.00
2611;DHT22;5612;51.134;17.058;2023-03-09T10:23:54;5.70;99.90
2611;DHT22;5612;51.134;17.058;2023-03-09T10:26:38;5.60;1.00
2611;DHT22;5612;51.134;17.058;2023-03-09T10:29:16;5.50;99.90
2611;DHT22;5612;51.134;17.058;2023-03-09T10:31:52;5.70;1.00
2611;DHT22;5612;51.134;17.058;2023-03-09T10:34:24;5.50;99.90
2611;DHT22;5612;51.134;17.058;2023-03-09T10:36:59;5.60;99.90
2611;DHT22;5612;51.134;17.058;2023-03-09T10:39:33;5.70;1.00
2611;DHT22;5612;51.134;17.058;2023-03-09T10:42:17;5.70;1.00
2611;DHT22;5612;51.134;17.058;2023-03-09T10:44:56;5.70;81.10
2611;DHT22;5612;51.134;17.058;2023-03-09T10:47:55;5.50;99.90
2611;DHT22;5612;51.134;17.058;2023-03-09T10:50:27;5.30;1.00
2611;DHT22;5612;51.134;17.058;2023-03-09T10:52:56;5.20;1.00
2611;DHT22;5612;51.134;17.058;2023-03-09T10:55:35;5.20;1.00
2611;DHT22;5612;51.134;17.058;2023-03-09T10:58:17;5.30;1.00
2611;DHT22;5612;51.134;17.058;2023-03-09T11:00:54;5.50;99.90
2611;DHT22;5612;51.134;17.058;2023-03-09T11:03:30;5.60;99.90
2611;DHT22;5612;51.134;17.058;2023-03-09T11:06:19;5.70;99.90
2611;DHT22;5612;51.134;17.058;2023-03-09T11:08:57;5.90;99.90
2611;DHT22;5612;51.134;17.058;2023-03-09T11:11:43;6.10;99.90
2611;DHT22;5612;51.134;17.058;2023-03-09T11:14:32;6.00;99.90
2611;DHT22;5612;51.134;17.058;2023-03-09T11:17:02;6.00;23.40
2611;DHT22;5612;51.134;17.058;2023-03-09T11:19:32;6.10;99.90
2611;DHT22;5612;51.134;17.058;2023-03-09T11:22:05;6.10;1.00
2611;DHT22;5612;51.134;17.058;2023-03-09T11:24:42;5.90;99.90
2611;DHT22;5612;51.134;17.058;2023-03-09T11:27:15;5.90;99.90
2611;DHT22;5612;51.134;17.058;2023-03-09T11:29:52;6.00;99.90
2611;DHT22;5612;51.134;17.058;2023-03-09T11:32:23;6.10;96.10
2611;DHT22;5612;51.134;17.058;2023-03-09T11:34:54;6.30;1.00
2611;DHT22;5612;51.134;17.058;2023-03-09T11:37:27;6.30;1.00
2611;DHT22;5612;51.134;17.058;2023-03-09T11:39:59;6.30;41.10
2611;DHT22;5612;51.134;17.058;2023-03-09T11:42:32;6.20;99.90
2611;DHT22;5612;51.134;17.058;2023-03-09T11:45:04;6.30;99.90
2611;DHT22;5612;51.134;17.058;2023-03-09T11:47:37;6.10;94.40
2611;DHT22;5612;51.134;17.058;2023-03-09T11:50:14;6.00;99.90
2611;DHT22;5612;51.134;17.058;2023-03-09T11:52:48;6.20;1.00
2611;DHT22;5612;51.134;17.058;2023-03-09T11:55:22;6.00;99.90
2611;DHT22;5612;51.134;17.058;2023-03-09T11:57:56;6.00;1.00
2611;DHT22;5612;51.134;17.058;2023-03-09T12:00:27;6.00;1.00
2611;DHT22;5612;51.134;17.058;2023-03-09T12:03:00;6.00;1.00
2611;DHT22;5612;51.134;17.058;2023-03-09T12:05:35;5.70;99.90
2611;DHT22;5612;51.134;17.058;2023-03-09T12:08:07;5.70;99.90
2611;DHT22;5612;51.134;17.058;2023-03-09T12:10:43;5.80;99.90
2611;DHT22;5612;51.134;17.058;2023-03-09T12:13:17;5.70;99.90
2611;DHT22;5612;51.134;17.058;2023-03-09T12:15:51;5.50;99.90
2611;DHT22;5612;51.134;17.058;2023-03-09T12:18:24;5.60;99.90
2611;DHT22;5612;51.134;17.058;2023-03-09T12:20:59;5.60;99.90
2611;DHT22;5612;51.134;17.058;2023-03-09T12:23:48;5.70;99.90
2611;DHT22;5612;51.134;17.058;2023-03-09T12:26:29;5.70;99.90
2611;DHT22;5612;51.134;17.058;2023-03-09T12:29:02;5.80;99.90
2611;DHT22;5612;51.134;17.058;2023-03-09T12:31:35;5.80;99.90
2611;DHT22;5612;51.134;17.058;2023-03-09T12:34:26;5.90;99.90
2611;DHT22;5612;51.134;17.058;2023-03-09T12:40:19;6.00;1.00
2611;DHT22;5612;51.134;17.058;2023-03-09T12:42:52;5.90;1.00
2611;DHT22;5612;51.134;17.058;2023-03-09T12:45:25;6.00;99.90
2611;DHT22;5612;51.134;17.058;2023-03-09T12:47:57;6.10;1.00
2611;DHT22;5612;51.134;17.058;2023-03-09T12:50:38;6.10;99.90
2611;DHT22;5612;51.134;17.058;2023-03-09T12:53:19;6.20;99.90
2611;DHT22;5612;51.134;17.058;2023-03-09T12:55:50;6.20;99.90
2611;DHT22;5612;51.134;17.058;2023-03-09T12:58:38;6.00;99.90
2611;DHT22;5612;51.134;17.058;2023-03-09T13:01:10;6.00;1.00
2611;DHT22;5612;51.134;17.058;2023-03-09T13:03:44;6.10;1.00
2611;DHT22;5612;51.134;17.058;2023-03-09T13:06:31;6.20;99.90
2611;DHT22;5612;51.134;17.058;2023-03-09T13:09:05;6.20;1.00
2611;DHT22;5612;51.134;17.058;2023-03-09T13:11:36;6.20;1.00
2611;DHT22;5612;51.134;17.058;2023-03-09T13:14:12;6.20;99.90
2611;DHT22;5612;51.134;17.058;2023-03-09T13:17:00;6.20;1.00
2611;DHT22;5612;51.134;17.058;2023-03-09T13:19:53;6.20;99.90
2611;DHT22;5612;51.134;17.058;2023-03-09T13:22:29;6.30;1.00
2611;DHT22;5612;51.134;17.058;2023-03-09T13:25:31;6.40;1.00
2611;DHT22;5612;51.134;17.058;2023-03-09T13:28:04;6.60;99.90
2611;DHT22;5612;51.134;17.058;2023-03-09T13:30:36;6.50;99.90
2611;DHT22;5612;51.134;17.058;2023-03-09T13:33:13;6.50;1.00
2611;DHT22;5612;51.134;17.058;2023-03-09T13:35:48;6.40;99.90
2611;DHT22;5612;51.134;17.058;2023-03-09T13:38:21;6.50;1.00
2611;DHT22;5612;51.134;17.058;2023-03-09T13:40:56;6.50;45.20
2611;DHT22;5612;51.134;17.058;2023-03-09T13:43:28;6.80;99.90
2611;DHT22;5612;51.134;17.058;2023-03-09T13:46:02;6.90;1.00
2611;DHT22;5612;51.134;17.058;2023-03-09T13:48:40;7.00;99.90
2611;DHT22;5612;51.134;17.058;2023-03-09T13:51:39;6.70;99.90
2611;DHT22;5612;51.134;17.058;2023-03-09T13:54:28;6.60;1.00
2611;DHT22;5612;51.134;17.058;2023-03-09T13:57:03;6.60;1.00
2611;DHT22;5612;51.134;17.058;2023-03-09T13:59:43;6.60;99.90
2611;DHT22;5612;51.134;17.058;2023-03-09T14:02:13;6.50;99.90
2611;DHT22;5612;51.134;17.058;2023-03-09T14:04:50;6.40;71.10
2611;DHT22;5612;51.134;17.058;2023-03-09T14:07:21;6.30;1.00
2611;DHT22;5612;51.134;17.058;2023-03-09T14:09:53;6.40;99.90
2611;DHT22;5612;51.134;17.058;2023-03-09T14:12:28;6.60;99.90
2611;DHT22;5612;51.134;17.058;2023-03-09T14:14:59;6.60;1.00
2611;DHT22;5612;51.134;17.058;2023-03-09T14:17:29;6.70;1.00
2611;DHT22;5612;51.134;17.058;2023-03-09T14:20:01;6.80;99.90
2611;DHT22;5612;51.134;17.058;2023-03-09T14:22:31;6.80;99.90
2611;DHT22;5612;51.134;17.058;2023-03-09T14:25:00;6.70;1.00
2611;DHT22;5612;51.134;17.058;2023-03-09T14:27:32;6.60;1.00
2611;DHT22;5612;51.134;17.058;2023-03-09T14:30:31;6.70;20.70
2611;DHT22;5612;51.134;17.058;2023-03-09T14:33:20;6.80;48.40
2611;DHT22;5612;51.134;17.058;2023-03-09T14:35:50;7.00;99.90
2611;DHT22;5612;51.134;17.058;2023-03-09T14:38:21;7.00;99.90
2611;DHT22;5612;51.134;17.058;2023-03-09T14:40:58;7.10;1.00
2611;DHT22;5612;51.134;17.058;2023-03-09T14:43:39;7.30;99.90
2611;DHT22;5612;51.134;17.058;2023-03-09T14:46:13;7.90;1.00
2611;DHT22;5612;51.134;17.058;2023-03-09T14:48:47;8.30;1.00
2611;DHT22;5612;51.134;17.058;2023-03-09T14:51:19;8.40;99.90
2611;DHT22;5612;51.134;17.058;2023-03-09T14:53:52;8.30;99.90
2611;DHT22;5612;51.134;17.058;2023-03-09T14:56:22;8.40;99.90
2611;DHT22;5612;51.134;17.058;2023-03-09T14:58:53;8.40;99.90
2611;DHT22;5612;51.134;17.058;2023-03-09T15:01:22;8.20;99.90
2611;DHT22;5612;51.134;17.058;2023-03-09T15:03:51;8.20;99.90
2611;DHT22;5612;51.134;17.058;2023-03-09T15:06:21;8.10;99.90
2611;DHT22;5612;51.134;17.058;2023-03-09T15:08:50;8.00;99.90
2611;DHT22;5612;51.134;17.058;2023-03-09T15:11:21;7.70;99.90
2611;DHT22;5612;51.134;17.058;2023-03-09T15:13:52;7.80;99.90
2611;DHT22;5612;51.134;17.058;2023-03-09T15:16:21;7.80;99.90
2611;DHT22;5612;51.134;17.058;2023-03-09T15:18:50;7.80;99.90
2611;DHT22;5612;51.134;17.058;2023-03-09T15:21:19;8.00;99.90
2611;DHT22;5612;51.134;17.058;2023-03-09T15:23:48;8.00;99.90
2611;DHT22;5612;51.134;17.058;2023-03-09T15:26:17;7.70;99.90
2611;DHT22;5612;51.134;17.058;2023-03-09T15:28:46;7.60;99.90
2611;DHT22;5612;51.134;17.058;2023-03-09T15:31:16;7.60;99.90
2611;DHT22;5612;51.134;17.058;2023-03-09T15:33:45;7.60;99.90
2611;DHT22;5612;51.134;17.058;2023-03-09T15:36:14;7.40;99.90
2611;DHT22;5612;51.134;17.058;2023-03-09T15:38:43;7.30;1.00
2611;DHT22;5612;51.134;17.058;2023-03-09T15:41:14;7.10;1.00
2611;DHT22;5612;51.134;17.058;2023-03-09T15:43:43;7.10;1.00
2611;DHT22;5612;51.134;17.058;2023-03-09T15:46:12;7.40;1.00
2611;DHT22;5612;51.134;17.058;2023-03-09T15:48:42;7.20;1.00
2611;DHT22;5612;51.134;17.058;2023-03-09T15:51:11;6.90;1.00
2611;DHT22;5612;51.134;17.058;2023-03-09T15:53:41;6.90;1.00
2611;DHT22;5612;51.134;17.058;2023-03-09T15:56:11;6.90;1.00
2611;DHT22;5612;51.134;17.058;2023-03-09T15:58:40;6.80;1.00
2611;DHT22;5612;51.134;17.058;2023-03-09T16:01:14;6.80;38.80
2611;DHT22;5612;51.134;17.058;2023-03-09T16:03:47;6.90;38.90
2611;DHT22;5612;51.134;17.058;2023-03-09T16:06:19;6.90;1.00
2611;DHT22;5612;51.134;17.058;2023-03-09T16:08:48;6.90;1.00
2611;DHT22;5612;51.134;17.058;2023-03-09T16:11:18;6.60;38.80
2611;DHT22;5612;51.134;17.058;2023-03-09T16:13:49;6.80;1.00
2611;DHT22;5612;51.134;17.058;2023-03-09T16:16:18;6.80;1.00
2611;DHT22;5612;51.134;17.058;2023-03-09T16:18:49;6.70;1.00
2611;DHT22;5612;51.134;17.058;2023-03-09T16:21:21;6.60;1.00
2611;DHT22;5612;51.134;17.058;2023-03-09T16:23:50;6.50;99.90
2611;DHT22;5612;51.134;17.058;2023-03-09T16:26:20;6.40;39.10
2611;DHT22;5612;51.134;17.058;2023-03-09T16:28:49;6.40;99.90
2611;DHT22;5612;51.134;17.058;2023-03-09T16:31:20;6.60;99.90
2611;DHT22;5612;51.134;17.058;2023-03-09T16:33:52;6.70;99.90
2611;DHT22;5612;51.134;17.058;2023-03-09T16:36:22;6.60;99.90
2611;DHT22;5612;51.134;17.058;2023-03-09T16:38:51;6.50;99.90
2611;DHT22;5612;51.134;17.058;2023-03-09T16:41:21;6.50;99.90
2611;DHT22;5612;51.134;17.058;2023-03-09T16:43:50;6.30;99.90